Time;durP1;ratioP1;P1;durP2;ratioP2;P2;SDS_P1;SDS_P2;PMS_P1;PMS_P2;Temp;Humidity;BMP_temperature;BMP_pressure;BME280_temperature;BME280_humidity;BME280_pressure;Samples;Min_cycle;Max_cycle;Signal;HPM_P1;HPM_P2
2023/11/27 00:01:21;;;;;;;0.30;0.27;;;1.50;99.90;;;;;;5088381;28;20165;-79
2023/11/27 00:03:48;;;;;;;0.30;0.30;;;1.50;99.90;;;;;;5087800;28;20241;-74
2023/11/27 00:06:14;;;;;;;0.30;0.30;;;1.60;99.90;;;;;;5087172;28;20538;-74
2023/11/27 00:08:39;;;;;;;0.30;0.30;;;1.60;99.90;;;;;;5086134;28;20196;-76
2023/11/27 00:11:06;;;;;;;0.30;0.20;;;1.60;99.90;;;;;;5088308;28;20561;-76
2023/11/27 00:13:31;;;;;;;0.30;0.30;;;1.60;99.90;;;;;;5086679;28;20433;-82
2023/11/27 00:15:57;;;;;;;0.30;0.30;;;1.60;99.90;;;;;;5086593;28;20212;-81
2023/11/27 00:18:22;;;;;;;0.30;0.30;;;1.60;99.90;;;;;;5087077;28;20240;-81
2023/11/27 00:20:48;;;;;;;0.30;0.30;;;1.60;99.90;;;;;;5088183;28;20626;-77
2023/11/27 00:23:14;;;;;;;0.30;0.27;;;1.60;99.90;;;;;;5087553;28;20193;-76
2023/11/27 00:25:40;;;;;;;0.30;0.30;;;1.60;99.90;;;;;;5086578;28;20188;-76
2023/11/27 00:28:06;;;;;;;0.30;0.30;;;1.70;99.90;;;;;;5087538;28;20536;-82
2023/11/27 00:30:32;;;;;;;0.30;0.30;;;1.70;99.90;;;;;;5086737;28;20231;-74
2023/11/27 00:32:57;;;;;;;0.30;0.30;;;1.70;99.90;;;;;;5087300;28;20203;-74
2023/11/27 00:35:23;;;;;;;0.40;0.40;;;1.70;99.90;;;;;;5087910;28;20420;-73
2023/11/27 00:37:49;;;;;;;0.30;0.23;;;1.70;99.90;;;;;;5087210;28;20179;-74
2023/11/27 00:40:15;;;;;;;0.30;0.30;;;1.70;99.90;;;;;;5087758;28;20309;-80
2023/11/27 00:42:41;;;;;;;0.30;0.20;;;1.70;99.90;;;;;;5086012;28;20168;-77
2023/11/27 00:45:07;;;;;;;0.30;0.30;;;1.70;99.90;;;;;;5086269;28;20180;-74
2023/11/27 00:47:34;;;;;;;0.30;0.30;;;1.80;99.90;;;;;;5087371;28;20168;-76
2023/11/27 00:50:00;;;;;;;0.30;0.30;;;1.80;99.90;;;;;;5087136;28;20691;-80
2023/11/27 00:52:25;;;;;;;0.30;0.20;;;1.70;99.90;;;;;;5087139;28;20168;-80
2023/11/27 00:54:51;;;;;;;0.30;0.30;;;1.80;99.90;;;;;;5086995;28;20707;-74
2023/11/27 00:57:17;;;;;;;0.30;0.30;;;1.80;99.90;;;;;;5086813;28;20215;-78
2023/11/27 00:59:43;;;;;;;0.30;0.30;;;1.80;99.90;;;;;;5087366;28;20295;-80
2023/11/27 01:02:09;;;;;;;0.30;0.30;;;1.80;99.90;;;;;;5085783;28;20248;-79
2023/11/27 01:04:39;;;;;;;0.30;0.20;;;1.80;99.90;;;;;;5085739;28;20454;-80
2023/11/27 01:07:05;;;;;;;0.30;0.30;;;1.90;99.90;;;;;;5086727;28;20596;-74
2023/11/27 01:09:32;;;;;;;0.30;0.30;;;1.90;99.90;;;;;;5086842;28;20197;-74
2023/11/27 01:11:57;;;;;;;0.30;0.25;;;1.90;99.90;;;;;;5086812;28;20419;-81
2023/11/27 01:14:23;;;;;;;0.30;0.30;;;1.90;99.90;;;;;;5086458;28;20731;-75
2023/11/27 01:16:49;;;;;;;0.30;0.30;;;1.90;99.90;;;;;;5086766;28;20713;-79
2023/11/27 01:19:14;;;;;;;0.30;0.30;;;1.90;99.90;;;;;;5085865;28;20639;-80
2023/11/27 01:21:40;;;;;;;0.30;0.20;;;1.90;99.90;;;;;;5085638;28;20259;-81
2023/11/27 01:24:06;;;;;;;0.30;0.30;;;1.80;99.90;;;;;;5086166;28;20235;-82
2023/11/27 01:26:32;;;;;;;0.30;0.30;;;1.80;99.90;;;;;;5085475;28;20185;-81
2023/11/27 01:28:58;;;;;;;0.30;0.30;;;1.80;99.90;;;;;;5086142;28;20204;-80
2023/11/27 01:31:24;;;;;;;0.30;0.30;;;1.80;99.90;;;;;;5086580;28;20785;-74
2023/11/27 01:33:51;;;;;;;0.30;0.30;;;1.80;99.90;;;;;;5086167;28;20400;-74
2023/11/27 01:36:19;;;;;;;0.30;0.30;;;1.80;99.90;;;;;;5085223;28;20963;-81
2023/11/27 01:38:45;;;;;;;0.30;0.30;;;1.80;99.90;;;;;;5085779;28;20382;-74
2023/11/27 01:41:10;;;;;;;0.30;0.20;;;1.80;99.90;;;;;;5086506;28;20598;-74
2023/11/27 01:43:36;;;;;;;0.30;0.30;;;1.80;99.90;;;;;;5084963;28;20208;-81
2023/11/27 01:46:26;;;;;;;0.30;0.20;;;1.80;99.90;;;;;;5086331;28;20613;-74
2023/11/27 01:48:57;;;;;;;0.30;0.20;;;1.80;99.90;;;;;;5084907;28;20263;-74
2023/11/27 01:51:25;;;;;;;0.30;0.30;;;1.80;99.90;;;;;;5086026;28;20180;-74
2023/11/27 01:53:53;;;;;;;0.30;0.30;;;1.70;99.90;;;;;;5084589;28;20199;-81
2023/11/27 01:56:21;;;;;;;0.30;0.20;;;1.80;99.90;;;;;;5086453;28;20204;-80
2023/11/27 01:58:48;;;;;;;0.30;0.30;;;1.80;99.90;;;;;;5085817;28;20184;-81
2023/11/27 02:01:15;;;;;;;0.30;0.20;;;1.80;99.90;;;;;;5084317;28;20168;-75
2023/11/27 02:03:41;;;;;;;0.30;0.30;;;1.80;99.90;;;;;;5085481;28;20676;-81
2023/11/27 02:06:07;;;;;;;0.30;0.30;;;1.80;99.90;;;;;;5085733;28;20189;-75
2023/11/27 02:08:33;;;;;;;0.30;0.30;;;1.80;99.90;;;;;;5085134;28;20196;-74
2023/11/27 02:10:59;;;;;;;0.30;0.30;;;1.80;99.90;;;;;;5086009;28;21020;-75
2023/11/27 02:13:25;;;;;;;0.30;0.30;;;1.80;99.90;;;;;;5085503;28;20435;-81
2023/11/27 02:15:52;;;;;;;0.30;0.30;;;1.80;99.90;;;;;;5085662;28;20204;-75
2023/11/27 02:18:18;;;;;;;0.30;0.30;;;1.70;99.90;;;;;;5085277;28;20247;-74
2023/11/27 02:20:44;;;;;;;0.30;0.30;;;1.70;99.90;;;;;;5085990;28;20177;-81
2023/11/27 02:23:14;;;;;;;0.30;0.30;;;1.70;99.90;;;;;;5084423;28;20329;-81
2023/11/27 02:25:40;;;;;;;0.30;0.20;;;1.70;99.90;;;;;;5085886;28;20208;-74
2023/11/27 02:28:07;;;;;;;0.30;0.30;;;1.60;99.90;;;;;;5085414;28;20457;-74
2023/11/27 02:30:32;;;;;;;0.30;0.30;;;1.60;99.90;;;;;;5084497;28;20478;-74
2023/11/27 02:32:58;;;;;;;0.30;0.30;;;1.50;99.90;;;;;;5085171;28;20291;-81
2023/11/27 02:35:23;;;;;;;0.30;0.30;;;1.50;99.90;;;;;;5086178;28;20184;-81
2023/11/27 02:37:49;;;;;;;0.30;0.30;;;1.50;99.90;;;;;;5085015;28;20238;-75
2023/11/27 02:40:16;;;;;;;0.30;0.30;;;1.50;99.90;;;;;;5084397;28;20223;-74
2023/11/27 02:42:42;;;;;;;0.30;0.30;;;1.50;99.90;;;;;;5085119;28;20172;-75
2023/11/27 02:45:10;;;;;;;0.30;0.30;;;1.50;99.90;;;;;;5085744;28;20443;-81
2023/11/27 02:47:36;;;;;;;0.30;0.30;;;1.50;99.90;;;;;;5085276;28;20195;-81
2023/11/27 02:50:04;;;;;;;0.30;0.20;;;1.50;99.90;;;;;;5085437;28;20295;-74
2023/11/27 02:52:30;;;;;;;0.30;0.30;;;1.40;99.90;;;;;;5085333;28;20190;-80
2023/11/27 02:54:57;;;;;;;0.30;0.30;;;1.40;99.90;;;;;;5083858;28;20657;-75
2023/11/27 02:57:22;;;;;;;0.30;0.30;;;1.50;99.90;;;;;;5085025;28;20196;-81
2023/11/27 02:59:49;;;;;;;0.30;0.30;;;1.40;99.90;;;;;;5085378;28;20203;-81
2023/11/27 03:02:15;;;;;;;0.30;0.30;;;1.40;99.90;;;;;;5084349;28;20712;-74
2023/11/27 03:04:42;;;;;;;0.30;0.30;;;1.40;99.90;;;;;;5083740;28;20253;-74
2023/11/27 03:07:07;;;;;;;0.30;0.30;;;1.40;99.90;;;;;;5084524;28;20650;-74
2023/11/27 03:09:33;;;;;;;0.30;0.30;;;1.30;99.90;;;;;;5085549;28;20269;-74
2023/11/27 03:12:00;;;;;;;0.30;0.30;;;1.30;99.90;;;;;;5083833;28;20904;-74
2023/11/27 03:14:26;;;;;;;0.30;0.30;;;1.40;99.90;;;;;;5083332;28;20200;-80
2023/11/27 03:16:52;;;;;;;0.30;0.30;;;1.30;99.90;;;;;;5085298;28;20637;-79
2023/11/27 03:19:18;;;;;;;0.30;0.30;;;1.40;99.90;;;;;;5087419;28;20710;-74
2023/11/27 03:21:43;;;;;;;0.30;0.30;;;1.40;99.90;;;;;;5087637;28;20431;-77
2023/11/27 03:24:09;;;;;;;0.30;0.30;;;1.40;99.90;;;;;;5088539;28;20214;-74
2023/11/27 03:26:35;;;;;;;0.30;0.30;;;1.40;99.90;;;;;;5089174;28;20180;-79
2023/11/27 03:29:01;;;;;;;0.30;0.20;;;1.40;99.90;;;;;;5088864;28;20200;-74
2023/11/27 03:31:27;;;;;;;0.30;0.30;;;1.40;99.90;;;;;;5089005;28;20173;-74
2023/11/27 03:33:52;;;;;;;0.30;0.30;;;1.50;99.90;;;;;;5088820;28;20576;-81
2023/11/27 03:36:19;;;;;;;0.30;0.30;;;1.50;99.90;;;;;;5088605;28;20677;-74
2023/11/27 03:38:44;;;;;;;0.30;0.30;;;1.60;99.90;;;;;;5087036;28;20201;-74
2023/11/27 03:41:21;;;;;;;0.30;0.30;;;1.60;99.90;;;;;;5088975;28;20172;-73
2023/11/27 03:43:49;;;;;;;0.30;0.30;;;1.60;99.90;;;;;;5086873;28;20192;-80
2023/11/27 03:46:15;;;;;;;0.30;0.30;;;1.70;99.90;;;;;;5088936;28;20631;-81
2023/11/27 03:48:41;;;;;;;0.30;0.30;;;1.70;99.90;;;;;;5088422;28;20414;-74
2023/11/27 03:51:08;;;;;;;0.30;0.30;;;1.80;99.90;;;;;;5088386;28;20252;-74
2023/11/27 03:53:33;;;;;;;0.30;0.30;;;1.80;99.90;;;;;;5088114;28;20520;-80
2023/11/27 03:55:59;;;;;;;0.30;0.30;;;1.80;99.90;;;;;;5088139;28;20216;-76
2023/11/27 03:58:25;;;;;;;0.30;0.30;;;1.80;99.90;;;;;;5086689;28;20277;-75
2023/11/27 04:00:52;;;;;;;0.30;0.30;;;1.80;99.90;;;;;;5088606;28;20177;-74
2023/11/27 04:03:19;;;;;;;0.30;0.30;;;1.90;99.90;;;;;;5085532;28;20196;-80
2023/11/27 04:05:45;;;;;;;0.30;0.30;;;2.00;99.90;;;;;;5088206;28;20241;-81
2023/11/27 04:08:10;;;;;;;0.30;0.20;;;2.00;99.90;;;;;;5087885;28;20291;-79
2023/11/27 04:10:36;;;;;;;0.30;0.30;;;2.00;99.90;;;;;;5088363;28;20411;-81
2023/11/27 04:13:01;;;;;;;0.30;0.20;;;2.10;99.90;;;;;;5086305;28;20669;-80
2023/11/27 04:15:29;;;;;;;0.30;0.30;;;2.20;99.90;;;;;;5088352;28;20618;-74
2023/11/27 04:17:55;;;;;;;0.30;0.20;;;2.20;99.90;;;;;;5086059;28;20246;-80
2023/11/27 04:20:21;;;;;;;0.30;0.30;;;2.30;99.90;;;;;;5086600;28;20181;-74
2023/11/27 04:22:46;;;;;;;0.30;0.20;;;2.30;99.90;;;;;;5087763;28;20217;-74
2023/11/27 04:25:13;;;;;;;0.30;0.30;;;2.20;99.90;;;;;;5086402;28;20318;-80
2023/11/27 04:27:39;;;;;;;0.30;0.30;;;2.20;99.90;;;;;;5087544;28;20173;-80
2023/11/27 04:30:05;;;;;;;0.30;0.30;;;2.20;99.90;;;;;;5087573;28;20245;-74
2023/11/27 04:32:32;;;;;;;0.30;0.30;;;2.20;99.90;;;;;;5087533;28;20172;-74
2023/11/27 04:34:58;;;;;;;0.30;0.30;;;2.20;99.90;;;;;;5087765;28;20737;-76
2023/11/27 04:37:24;;;;;;;0.30;0.30;;;2.30;99.90;;;;;;5085711;28;20379;-79
2023/11/27 04:39:51;;;;;;;0.30;0.30;;;2.30;99.90;;;;;;5086261;28;20576;-74
2023/11/27 04:42:17;;;;;;;0.30;0.20;;;2.30;99.90;;;;;;5087175;28;20440;-74
2023/11/27 04:44:43;;;;;;;0.30;0.30;;;2.40;99.90;;;;;;5087641;28;20192;-75
2023/11/27 04:47:09;;;;;;;0.30;0.20;;;2.40;99.90;;;;;;5087011;28;20180;-80
2023/11/27 04:49:35;;;;;;;0.30;0.30;;;2.50;99.90;;;;;;5086044;28;20459;-74
2023/11/27 04:52:01;;;;;;;0.30;0.20;;;2.60;99.90;;;;;;5086025;28;20168;-79
2023/11/27 04:54:27;;;;;;;0.30;0.20;;;2.60;99.90;;;;;;5085974;28;20625;-74
2023/11/27 04:56:52;;;;;;;0.30;0.30;;;2.60;99.90;;;;;;5092669;27;20238;-80
2023/11/27 04:59:18;;;;;;;0.30;0.30;;;2.70;99.90;;;;;;5102521;27;20431;-80
2023/11/27 05:01:44;;;;;;;0.30;0.20;;;2.70;99.90;;;;;;5107242;28;20168;-80
2023/11/27 05:04:10;;;;;;;0.30;0.30;;;2.70;99.90;;;;;;5105402;28;20244;-74
2023/11/27 05:06:35;;;;;;;0.30;0.30;;;2.80;99.90;;;;;;5106077;28;20175;-80
2023/11/27 05:09:02;;;;;;;0.30;0.20;;;2.80;99.90;;;;;;5107304;28;20207;-74
2023/11/27 05:11:28;;;;;;;0.30;0.30;;;2.90;99.90;;;;;;5106610;28;20846;-74
2023/11/27 05:13:54;;;;;;;0.30;0.28;;;2.90;99.90;;;;;;5105205;28;20230;-80
2023/11/27 05:16:20;;;;;;;0.30;0.20;;;3.00;99.90;;;;;;5105496;28;20223;-80
2023/11/27 05:18:46;;;;;;;0.30;0.20;;;3.00;99.90;;;;;;5109595;27;20566;-80
2023/11/27 05:21:12;;;;;;;0.30;0.20;;;3.10;99.90;;;;;;5091616;28;20201;-77
2023/11/27 05:23:41;;;;;;;0.30;0.30;;;3.10;99.90;;;;;;5104224;28;20626;-75
2023/11/27 05:26:08;;;;;;;0.30;0.30;;;3.10;99.90;;;;;;5102327;28;20688;-81
2023/11/27 05:28:35;;;;;;;0.30;0.30;;;3.00;99.90;;;;;;5097700;27;20219;-81
2023/11/27 05:31:00;;;;;;;0.30;0.30;;;3.00;99.90;;;;;;5105993;28;20565;-75
2023/11/27 05:33:26;;;;;;;0.30;0.20;;;3.00;99.90;;;;;;5104305;28;20256;-75
2023/11/27 05:35:52;;;;;;;0.30;0.20;;;2.90;99.90;;;;;;5099911;28;20208;-81
2023/11/27 05:38:18;;;;;;;0.30;0.30;;;2.90;99.90;;;;;;5103068;28;20274;-74
2023/11/27 05:40:44;;;;;;;0.30;0.30;;;2.90;99.90;;;;;;5098769;28;20386;-75
2023/11/27 05:43:11;;;;;;;0.30;0.20;;;2.90;99.90;;;;;;5100564;28;20203;-81
2023/11/27 05:45:37;;;;;;;0.30;0.30;;;2.90;99.90;;;;;;5105334;28;20229;-81
2023/11/27 05:48:05;;;;;;;0.30;0.30;;;3.00;99.90;;;;;;5105725;28;20191;-81
2023/11/27 05:50:32;;;;;;;0.30;0.20;;;3.00;99.90;;;;;;5102601;28;20184;-75
2023/11/27 05:52:58;;;;;;;0.30;0.20;;;3.00;99.90;;;;;;5101836;28;20206;-81
2023/11/27 05:55:24;;;;;;;0.30;0.30;;;3.00;99.90;;;;;;5104185;28;20186;-81
2023/11/27 05:57:50;;;;;;;0.30;0.30;;;3.00;99.90;;;;;;5103566;28;20510;-75
2023/11/27 06:00:16;;;;;;;0.30;0.20;;;3.00;99.90;;;;;;5104161;28;20180;-76
2023/11/27 06:02:42;;;;;;;0.30;0.20;;;3.00;99.90;;;;;;5103939;28;20271;-75
2023/11/27 06:05:08;;;;;;;0.30;0.20;;;3.00;99.90;;;;;;5105946;28;20874;-82
2023/11/27 06:07:34;;;;;;;0.30;0.20;;;2.90;99.90;;;;;;5102666;28;20179;-75
2023/11/27 06:10:02;;;;;;;0.30;0.30;;;2.90;99.90;;;;;;5097523;28;20349;-76
2023/11/27 06:12:28;;;;;;;0.30;0.30;;;2.90;99.90;;;;;;5083149;28;20710;-76
2023/11/27 06:14:54;;;;;;;0.30;0.30;;;2.80;99.90;;;;;;5085249;28;20200;-76
2023/11/27 06:17:20;;;;;;;0.30;0.30;;;2.90;99.90;;;;;;5083348;28;20227;-81
2023/11/27 06:19:46;;;;;;;0.30;0.30;;;2.90;99.90;;;;;;5083743;28;20747;-82
2023/11/27 06:22:12;;;;;;;0.30;0.30;;;2.90;99.90;;;;;;5094918;28;20156;-82
2023/11/27 06:24:38;;;;;;;0.30;0.20;;;2.90;99.90;;;;;;5102304;28;20470;-80
2023/11/27 06:27:04;;;;;;;0.30;0.30;;;2.90;99.90;;;;;;5102917;28;20180;-81
2023/11/27 06:29:29;;;;;;;0.30;0.30;;;2.80;99.90;;;;;;5104940;28;20684;-75
2023/11/27 06:31:55;;;;;;;0.30;0.27;;;2.80;99.90;;;;;;5100257;28;20451;-82
2023/11/27 06:34:21;;;;;;;0.30;0.30;;;2.80;99.90;;;;;;5103406;28;20238;-83
2023/11/27 06:36:46;;;;;;;0.30;0.30;;;2.80;99.90;;;;;;5100620;28;20442;-75
2023/11/27 06:39:13;;;;;;;0.40;0.30;;;2.90;99.90;;;;;;5099487;28;20462;-83
2023/11/27 06:41:38;;;;;;;0.30;0.30;;;2.90;99.90;;;;;;5094058;28;20192;-83
2023/11/27 06:44:05;;;;;;;0.30;0.30;;;2.90;99.90;;;;;;5103243;28;20200;-75
2023/11/27 06:46:31;;;;;;;0.30;0.30;;;2.90;99.90;;;;;;5098647;28;20172;-75
2023/11/27 06:48:56;;;;;;;0.30;0.20;;;2.90;99.90;;;;;;5098907;28;20214;-83
2023/11/27 06:51:22;;;;;;;0.30;0.30;;;2.90;99.90;;;;;;5108415;28;20637;-76
2023/11/27 06:53:48;;;;;;;0.30;0.20;;;2.90;99.90;;;;;;5101501;28;20494;-82
2023/11/27 06:56:13;;;;;;;0.30;0.30;;;2.90;99.90;;;;;;5104728;28;20291;-76
2023/11/27 06:58:39;;;;;;;0.30;0.30;;;2.90;99.90;;;;;;5102847;28;20235;-83
2023/11/27 07:01:11;;;;;;;0.30;0.20;;;2.90;99.90;;;;;;5105074;28;20457;-82
2023/11/27 07:03:37;;;;;;;0.30;0.30;;;2.80;99.90;;;;;;5103441;28;20194;-75
2023/11/27 07:06:04;;;;;;;0.30;0.30;;;2.70;99.90;;;;;;5104093;28;20176;-84
2023/11/27 07:08:31;;;;;;;0.30;0.30;;;2.70;99.90;;;;;;5108644;27;20651;-81
2023/11/27 07:10:57;;;;;;;0.30;0.20;;;2.70;99.90;;;;;;5104280;28;20664;-75
2023/11/27 07:13:25;;;;;;;0.30;0.30;;;2.70;99.90;;;;;;5105457;27;20268;-75
2023/11/27 07:15:51;;;;;;;0.30;0.30;;;2.70;99.90;;;;;;5102118;28;20271;-83
2023/11/27 07:18:16;;;;;;;0.30;0.20;;;2.80;99.90;;;;;;5099986;28;20752;-84
2023/11/27 07:20:45;;;;;;;0.30;0.20;;;2.80;99.90;;;;;;5105492;28;20267;-75
2023/11/27 07:23:10;;;;;;;0.30;0.20;;;2.80;99.90;;;;;;5104534;28;20359;-84
2023/11/27 07:25:37;;;;;;;0.30;0.20;;;2.90;99.90;;;;;;5107565;28;20595;-84
2023/11/27 07:28:04;;;;;;;0.30;0.20;;;2.90;99.90;;;;;;5104929;28;21106;-84
2023/11/27 07:30:31;;;;;;;0.30;0.20;;;3.00;99.90;;;;;;5106714;28;20202;-76
2023/11/27 07:32:58;;;;;;;0.30;0.30;;;3.00;99.90;;;;;;5105501;28;20184;-75
2023/11/27 07:35:24;;;;;;;0.30;0.20;;;3.00;99.90;;;;;;5098773;28;20183;-84
2023/11/27 07:37:50;;;;;;;0.30;0.30;;;3.00;99.90;;;;;;5099881;28;20390;-76
2023/11/27 07:40:16;;;;;;;0.30;0.20;;;3.00;99.90;;;;;;5103643;28;20783;-75
2023/11/27 07:42:42;;;;;;;0.30;0.30;;;3.10;99.90;;;;;;5103480;28;20694;-83
2023/11/27 07:45:09;;;;;;;0.30;0.30;;;3.10;99.90;;;;;;5093754;28;20184;-75
2023/11/27 07:47:35;;;;;;;0.30;0.30;;;3.10;99.90;;;;;;5098917;28;20869;-82
2023/11/27 07:50:01;;;;;;;0.30;0.30;;;3.20;99.90;;;;;;5105495;28;20222;-75
2023/11/27 07:52:27;;;;;;;0.30;0.30;;;3.30;99.90;;;;;;5105475;28;20481;-75
2023/11/27 07:54:53;;;;;;;0.30;0.20;;;3.30;99.90;;;;;;5105898;27;20615;-82
2023/11/27 07:57:19;;;;;;;0.30;0.30;;;3.40;99.90;;;;;;5103085;28;20208;-75
2023/11/27 07:59:45;;;;;;;0.30;0.30;;;3.40;99.90;;;;;;5104141;28;20559;-83
2023/11/27 08:02:14;;;;;;;0.30;0.30;;;3.50;99.90;;;;;;5101358;28;20435;-83
2023/11/27 08:04:40;;;;;;;0.30;0.30;;;3.50;99.90;;;;;;5101431;28;20562;-75
2023/11/27 08:07:06;;;;;;;0.30;0.30;;;3.50;99.90;;;;;;5104017;27;20420;-81
2023/11/27 08:09:33;;;;;;;0.30;0.30;;;3.60;99.90;;;;;;5100972;28;20196;-75
2023/11/27 08:11:59;;;;;;;0.30;0.30;;;3.60;99.90;;;;;;5103552;28;20184;-75
2023/11/27 08:14:25;;;;;;;0.30;0.30;;;3.70;99.90;;;;;;5103657;28;20374;-75
2023/11/27 08:16:50;;;;;;;0.30;0.30;;;3.80;99.90;;;;;;5101874;28;20459;-81
2023/11/27 08:19:17;;;;;;;0.30;0.30;;;3.80;99.90;;;;;;5103765;28;20235;-74
2023/11/27 08:21:44;;;;;;;0.30;0.30;;;3.80;99.90;;;;;;5108904;27;20187;-82
2023/11/27 08:24:13;;;;;;;0.30;0.30;;;3.90;99.90;;;;;;5095375;28;20383;-82
2023/11/27 08:26:42;;;;;;;0.30;0.30;;;3.90;99.90;;;;;;5097971;28;20179;-82
2023/11/27 08:29:09;;;;;;;0.30;0.20;;;4.00;99.90;;;;;;5095353;28;20791;-75
2023/11/27 08:31:35;;;;;;;0.30;0.20;;;4.00;99.90;;;;;;5095680;28;20615;-75
2023/11/27 08:34:02;;;;;;;0.30;0.20;;;4.10;99.90;;;;;;5094237;28;20298;-82
2023/11/27 08:36:27;;;;;;;0.30;0.30;;;4.20;99.90;;;;;;5093728;28;20289;-83
2023/11/27 08:38:57;;;;;;;0.30;0.20;;;4.20;99.90;;;;;;5097693;28;20200;-75
2023/11/27 08:41:23;;;;;;;0.30;0.20;;;4.20;99.90;;;;;;5098694;28;20180;-83
2023/11/27 08:43:49;;;;;;;0.30;0.30;;;4.20;99.90;;;;;;5101913;27;20187;-75
2023/11/27 08:46:15;;;;;;;0.30;0.20;;;4.20;99.90;;;;;;5085818;28;20171;-82
2023/11/27 08:48:40;;;;;;;0.30;0.20;;;4.30;99.90;;;;;;5098160;28;20746;-83
2023/11/27 08:51:09;;;;;;;0.30;0.30;;;4.40;99.90;;;;;;5097747;28;20812;-82
2023/11/27 08:53:35;;;;;;;0.30;0.20;;;4.40;99.90;;;;;;5103206;27;20200;-83
2023/11/27 08:56:02;;;;;;;0.30;0.30;;;4.60;99.90;;;;;;5101237;28;20419;-83
2023/11/27 08:58:28;;;;;;;0.30;0.20;;;4.60;99.90;;;;;;5100693;28;20680;-83
2023/11/27 09:00:54;;;;;;;0.30;0.30;;;4.70;99.90;;;;;;5110696;27;20184;-75
2023/11/27 09:03:20;;;;;;;0.30;0.30;;;4.80;99.90;;;;;;5098329;28;20208;-75
2023/11/27 09:05:46;;;;;;;0.30;0.20;;;4.90;99.90;;;;;;5099895;28;20934;-83
2023/11/27 09:08:13;;;;;;;0.30;0.30;;;5.00;99.90;;;;;;5100153;28;20436;-83
2023/11/27 09:10:40;;;;;;;0.30;0.28;;;5.00;99.90;;;;;;5099355;28;20179;-83
2023/11/27 09:13:06;;;;;;;0.30;0.20;;;5.10;99.90;;;;;;5101006;28;20685;-75
2023/11/27 09:15:33;;;;;;;0.30;0.20;;;5.10;99.90;;;;;;5101862;28;20211;-75
2023/11/27 09:17:59;;;;;;;0.30;0.20;;;5.20;99.90;;;;;;5098678;28;20241;-82
2023/11/27 09:20:26;;;;;;;0.30;0.20;;;5.30;99.90;;;;;;5092341;28;20506;-75
2023/11/27 09:22:52;;;;;;;0.30;0.20;;;5.30;99.90;;;;;;5098614;28;20198;-83
2023/11/27 09:25:18;;;;;;;0.30;0.20;;;5.30;99.90;;;;;;5102261;28;20187;-74
2023/11/27 09:27:46;;;;;;;0.30;0.20;;;5.40;99.90;;;;;;5100620;28;20221;-74
2023/11/27 09:30:12;;;;;;;0.30;0.30;;;5.50;99.90;;;;;;5102929;28;20402;-75
2023/11/27 09:32:38;;;;;;;0.30;0.20;;;5.60;99.90;;;;;;5113144;27;20171;-76
2023/11/27 09:35:08;;;;;;;0.30;0.20;;;5.60;99.90;;;;;;5095409;28;20195;-76
2023/11/27 09:37:35;;;;;;;0.35;0.25;;;5.60;99.90;;;;;;5094053;28;20211;-84
2023/11/27 09:40:02;;;;;;;0.30;0.20;;;5.70;99.90;;;;;;5100919;28;20191;-75
2023/11/27 09:42:35;;;;;;;0.30;0.30;;;5.70;99.90;;;;;;5110158;27;20227;-75
2023/11/27 09:45:07;;;;;;;0.30;0.20;;;5.70;99.90;;;;;;5102550;27;20411;-83
2023/11/27 09:47:33;;;;;;;0.30;0.20;;;5.80;99.90;;;;;;5099531;28;20183;-75
2023/11/27 09:50:02;;;;;;;0.30;0.20;;;5.80;99.90;;;;;;5099885;28;20215;-83
2023/11/27 09:52:36;;;;;;;0.30;0.28;;;5.90;99.90;;;;;;5098786;28;20342;-82
2023/11/27 09:55:06;;;;;;;0.30;0.30;;;5.90;99.90;;;;;;5097946;28;20183;-83
2023/11/27 09:57:33;;;;;;;0.30;0.20;;;6.00;99.90;;;;;;5112268;27;20677;-75
2023/11/27 10:00:00;;;;;;;0.30;0.20;;;6.00;99.90;;;;;;5095178;28;20267;-83
2023/11/27 10:02:25;;;;;;;0.30;0.20;;;6.10;99.90;;;;;;5100935;28;20236;-82
2023/11/27 10:04:53;;;;;;;0.30;0.30;;;6.10;99.90;;;;;;5104175;27;20672;-76
2023/11/27 10:07:21;;;;;;;0.30;0.20;;;6.10;99.90;;;;;;5100095;28;20180;-82
2023/11/27 10:09:51;;;;;;;0.30;0.20;;;6.10;99.90;;;;;;5096238;28;20284;-82
2023/11/27 10:12:28;;;;;;;0.30;0.20;;;6.10;99.90;;;;;;5093434;28;20283;-82
2023/11/27 10:14:54;;;;;;;0.30;0.30;;;6.10;99.90;;;;;;5098245;28;20264;-75
2023/11/27 10:17:21;;;;;;;0.30;0.30;;;6.20;99.90;;;;;;5099617;28;20253;-75
2023/11/27 10:19:58;;;;;;;0.30;0.20;;;6.20;99.90;;;;;;5097444;28;20235;-81
2023/11/27 10:22:29;;;;;;;0.30;0.30;;;6.20;99.90;;;;;;5095242;28;20633;-74
2023/11/27 10:24:59;;;;;;;0.30;0.30;;;6.30;99.90;;;;;;5095100;28;20203;-81
2023/11/27 10:27:25;;;;;;;0.30;0.20;;;6.30;99.90;;;;;;5097935;28;20363;-75
2023/11/27 10:29:50;;;;;;;0.30;0.20;;;6.30;99.90;;;;;;5098512;28;20736;-82
2023/11/27 10:32:17;;;;;;;0.30;0.20;;;6.30;99.90;;;;;;5095418;28;20832;-83
2023/11/27 10:34:43;;;;;;;0.30;0.20;;;6.40;99.90;;;;;;5095125;28;20300;-76
2023/11/27 10:37:09;;;;;;;0.30;0.30;;;6.40;99.90;;;;;;5097957;28;20204;-82
2023/11/27 10:39:34;;;;;;;0.30;0.20;;;6.40;99.90;;;;;;5099649;28;20572;-83
2023/11/27 10:42:07;;;;;;;0.30;0.20;;;6.50;99.90;;;;;;5100789;28;20353;-82
2023/11/27 10:44:37;;;;;;;0.30;0.20;;;6.50;99.90;;;;;;5098171;28;20451;-85
2023/11/27 10:47:10;;;;;;;0.30;0.20;;;6.60;99.90;;;;;;5099566;28;20206;-75
2023/11/27 10:49:40;;;;;;;0.30;0.30;;;6.60;99.90;;;;;;5096112;28;20215;-75
2023/11/27 10:52:09;;;;;;;0.30;0.20;;;6.70;99.90;;;;;;5094511;28;20562;-82
2023/11/27 10:54:38;;;;;;;0.30;0.20;;;6.70;99.90;;;;;;5092441;28;20235;-74
2023/11/27 10:57:06;;;;;;;0.30;0.20;;;6.70;99.90;;;;;;5099950;28;20334;-76
2023/11/27 10:59:33;;;;;;;0.30;0.20;;;6.80;99.90;;;;;;5098992;28;20733;-75
2023/11/27 11:02:02;;;;;;;0.30;0.20;;;6.80;99.90;;;;;;5097914;28;20528;-75
2023/11/27 11:04:51;;;;;;;0.30;0.20;;;6.90;99.90;;;;;;5097656;28;20328;-75
2023/11/27 11:07:25;;;;;;;0.30;0.20;;;6.90;99.90;;;;;;5098490;28;20184;-82
2023/11/27 11:09:55;;;;;;;0.30;0.20;;;7.00;99.90;;;;;;5093454;28;20634;-81
2023/11/27 11:12:23;;;;;;;0.30;0.20;;;7.00;99.90;;;;;;5108132;28;20196;-74
2023/11/27 11:14:51;;;;;;;0.30;0.20;;;7.00;99.90;;;;;;5106209;28;20244;-75
2023/11/27 11:17:34;;;;;;;0.30;0.20;;;7.10;99.90;;;;;;5096344;28;20851;-75
2023/11/27 11:20:28;;;;;;;0.30;0.20;;;7.20;99.90;;;;;;5096033;28;20214;-75
2023/11/27 11:23:06;;;;;;;0.30;0.20;;;7.20;99.90;;;;;;5097818;28;20176;-75
2023/11/27 11:25:56;;;;;;;0.30;0.20;;;7.20;99.90;;;;;;5097847;28;20241;-74
2023/11/27 11:28:35;;;;;;;0.30;0.20;;;7.30;99.90;;;;;;5097627;28;20291;-82
2023/11/27 11:31:17;;;;;;;0.30;0.20;;;7.40;99.90;;;;;;5088915;28;20584;-77
2023/11/27 11:33:47;;;;;;;0.30;0.20;;;7.40;99.90;;;;;;5099299;28;20325;-78
2023/11/27 11:36:30;;;;;;;0.30;0.30;;;7.50;99.90;;;;;;5099710;28;20208;-85
2023/11/27 11:38:56;;;;;;;0.30;0.20;;;7.50;99.90;;;;;;5095269;28;20255;-84
2023/11/27 11:41:24;;;;;;;0.30;0.20;;;7.50;99.90;;;;;;5097063;28;20223;-83
2023/11/27 11:43:52;;;;;;;0.30;0.20;;;7.50;99.90;;;;;;5096150;28;21076;-86
2023/11/27 11:46:24;;;;;;;0.30;0.20;;;7.60;99.90;;;;;;5092698;28;20449;-84
2023/11/27 11:48:55;;;;;;;0.30;0.20;;;7.60;99.90;;;;;;5098234;28;20200;-79
2023/11/27 11:51:25;;;;;;;0.30;0.20;;;7.70;99.90;;;;;;5097625;28;20573;-80
2023/11/27 11:53:51;;;;;;;0.30;0.20;;;7.70;99.90;;;;;;5096144;28;20693;-86
2023/11/27 11:56:24;;;;;;;0.30;0.30;;;7.80;99.90;;;;;;5122618;27;20409;-85
2023/11/27 11:58:50;;;;;;;0.30;0.20;;;7.80;99.90;;;;;;5095181;28;20203;-80
2023/11/27 12:01:18;;;;;;;0.30;0.20;;;7.90;99.90;;;;;;5098306;28;20180;-80
2023/11/27 12:03:46;;;;;;;0.30;0.20;;;7.90;99.90;;;;;;5092998;28;20194;-85
2023/11/27 12:06:15;;;;;;;0.30;0.20;;;8.00;99.90;;;;;;5093655;28;20175;-80
2023/11/27 12:08:49;;;;;;;0.30;0.20;;;8.00;99.90;;;;;;5095103;28;20246;-86
2023/11/27 12:11:15;;;;;;;1.33;1.33;;;8.00;99.90;;;;;;5095479;28;20480;-77
2023/11/27 12:13:43;;;;;;;0.30;0.20;;;8.00;99.90;;;;;;5093899;28;20870;-78
2023/11/27 12:16:12;;;;;;;0.30;0.30;;;8.00;99.90;;;;;;5090834;28;20467;-77
2023/11/27 12:18:50;;;;;;;0.30;0.30;;;8.00;99.90;;;;;;5096547;28;20719;-78
2023/11/27 12:21:21;;;;;;;0.30;0.20;;;7.90;99.90;;;;;;5094034;28;20179;-84
2023/11/27 12:23:47;;;;;;;0.30;0.20;;;7.90;99.90;;;;;;5094672;28;20607;-78
2023/11/27 12:26:22;;;;;;;0.38;0.38;;;7.90;99.90;;;;;;5095015;28;20299;-78
2023/11/27 12:28:52;;;;;;;0.30;0.20;;;7.90;99.90;;;;;;5097555;28;20647;-78
2023/11/27 12:31:18;;;;;;;0.30;0.30;;;7.90;99.90;;;;;;5101480;28;20759;-78
2023/11/27 12:33:47;;;;;;;0.30;0.20;;;7.90;99.90;;;;;;5101184;28;20204;-84
2023/11/27 12:36:14;;;;;;;0.30;0.20;;;8.00;99.90;;;;;;5099348;28;20223;-78
2023/11/27 12:38:41;;;;;;;0.70;0.70;;;8.00;99.90;;;;;;5104413;27;20709;-84
2023/11/27 12:41:07;;;;;;;0.30;0.20;;;8.00;99.90;;;;;;5087375;28;20823;-84
2023/11/27 12:43:35;;;;;;;0.30;0.20;;;8.00;99.90;;;;;;5085417;28;20760;-78
2023/11/27 12:46:04;;;;;;;0.30;0.20;;;8.00;99.90;;;;;;5093897;28;20262;-84
2023/11/27 12:48:33;;;;;;;0.30;0.20;;;7.90;99.90;;;;;;5094529;28;20666;-84
2023/11/27 12:50:59;;;;;;;0.30;0.30;;;7.90;99.90;;;;;;5091506;28;20303;-84
2023/11/27 12:53:25;;;;;;;0.30;0.20;;;7.90;99.90;;;;;;5095494;28;20344;-78
2023/11/27 12:55:53;;;;;;;0.30;0.20;;;7.90;99.90;;;;;;5093459;28;20194;-84
2023/11/27 12:58:21;;;;;;;0.30;0.20;;;8.00;99.90;;;;;;5122655;27;20510;-84